Time;durP1;ratioP1;P1;durP2;ratioP2;P2;SDS_P1;SDS_P2;PMS_P1;PMS_P2;Temp;Humidity;BMP_temperature;BMP_pressure;BME280_temperature;BME280_humidity;BME280_pressure;Samples;Min_cycle;Max_cycle;Signal;HPM_P1;HPM_P2
2021/10/10 00:01:26;;;;;;;9.77;7.75;;;;;;;11.26;64.47;102232.06;5011559;28;20523;-42
2021/10/10 00:03:52;;;;;;;8.43;7.55;;;;;;;11.26;64.31;102231.16;5011912;28;20072;-42
2021/10/10 00:06:17;;;;;;;8.95;6.93;;;;;;;11.26;64.17;102231.16;5012568;28;20028;-42
2021/10/10 00:08:42;;;;;;;8.63;7.78;;;;;;;11.25;64.09;102224.13;5026574;28;20026;-43
2021/10/10 00:11:07;;;;;;;8.38;7.57;;;;;;;11.26;64.06;102231.16;5011652;28;20096;-42
2021/10/10 00:13:33;;;;;;;9.40;7.63;;;;;;;11.24;64.24;102227.63;5009846;28;20106;-43
2021/10/10 00:15:58;;;;;;;8.88;7.05;;;;;;;11.24;64.15;102227.63;5011357;28;20030;-42
2021/10/10 00:18:23;;;;;;;9.13;7.35;;;;;;;11.21;64.05;102217.03;5010063;28;20026;-42
2021/10/10 00:20:49;;;;;;;9.15;7.93;;;;;;;11.20;64.03;102221.41;5011560;28;20026;-42
2021/10/10 00:23:14;;;;;;;8.05;7.10;;;;;;;11.22;64.14;102224.06;5010754;28;20029;-42
2021/10/10 00:25:39;;;;;;;8.55;7.65;;;;;;;11.20;64.03;102221.41;5007996;28;20116;-43
2021/10/10 00:28:05;;;;;;;8.85;7.85;;;;;;;11.21;64.26;102214.38;5010362;28;20062;-42
2021/10/10 00:30:30;;;;;;;11.20;8.25;;;;;;;11.20;63.99;102220.53;5010442;28;20045;-43
2021/10/10 00:32:56;;;;;;;9.55;7.80;;;;;;;11.20;64.27;102220.53;5009403;28;20101;-43
2021/10/10 00:35:21;;;;;;;10.38;7.68;;;;;;;11.18;64.15;102222.25;5010323;28;20404;-42
2021/10/10 00:37:47;;;;;;;9.82;7.72;;;;;;;11.16;63.99;102215.22;5011199;28;20388;-42
2021/10/10 00:40:13;;;;;;;9.55;8.05;;;;;;;11.17;64.31;102210.78;5010838;28;20029;-42
2021/10/10 00:42:38;;;;;;;8.80;7.72;;;;;;;11.15;64.29;102208.16;5009105;28;20072;-42
2021/10/10 00:45:04;;;;;;;9.00;7.07;;;;;;;11.14;63.87;102211.66;5011421;28;20038;-42
2021/10/10 00:47:29;;;;;;;8.65;7.35;;;;;;;11.15;64.22;102215.19;5009632;28;20041;-42
2021/10/10 00:49:55;;;;;;;8.48;7.55;;;;;;;11.14;63.80;102211.66;5010117;28;20021;-43
2021/10/10 00:52:20;;;;;;;8.55;7.70;;;;;;;11.14;63.98;102211.66;5008498;28;20034;-43
2021/10/10 00:54:47;;;;;;;9.18;7.97;;;;;;;11.13;63.91;102209.88;5002985;28;20029;-42
2021/10/10 00:57:14;;;;;;;8.02;7.22;;;;;;;11.12;63.91;102201.94;5007076;28;20083;-42
2021/10/10 00:59:42;;;;;;;8.88;7.97;;;;;;;11.11;64.05;102210.72;5007413;28;20104;-42
2021/10/10 01:02:08;;;;;;;8.43;7.47;;;;;;;11.10;63.85;102201.03;5009813;28;20109;-42
2021/10/10 01:04:33;;;;;;;9.63;7.70;;;;;;;11.10;64.48;102206.31;5006866;28;20478;-42
2021/10/10 01:07:00;;;;;;;7.72;6.93;;;;;;;11.10;64.30;102204.56;5010623;28;20029;-42
2021/10/10 01:09:26;;;;;;;9.18;7.18;;;;;;;11.08;63.78;102194.84;5010682;28;20017;-42
2021/10/10 01:11:51;;;;;;;9.23;7.70;;;;;;;11.08;64.08;102195.75;5008292;28;20079;-42
2021/10/10 01:14:16;;;;;;;9.07;7.82;;;;;;;11.08;63.75;102200.13;5009770;28;20476;-43
2021/10/10 01:16:42;;;;;;;9.20;7.47;;;;;;;11.07;63.73;102193.06;5010425;28;20112;-43
2021/10/10 01:19:07;;;;;;;8.45;7.60;;;;;;;11.06;63.84;102189.53;5009564;28;20034;-42
2021/10/10 01:21:33;;;;;;;9.02;7.80;;;;;;;11.04;63.77;102186.88;5009488;28;20522;-43
2021/10/10 01:23:58;;;;;;;9.32;7.80;;;;;;;11.03;64.18;102187.75;5010517;28;20026;-42
2021/10/10 01:26:23;;;;;;;9.32;8.43;;;;;;;11.04;63.69;102178.09;5008989;28;20476;-43
2021/10/10 01:28:49;;;;;;;8.57;7.75;;;;;;;11.04;63.88;102178.94;5010146;28;20041;-42
2021/10/10 01:31:14;;;;;;;9.20;7.07;;;;;;;11.03;63.67;102181.56;5009905;28;20377;-42
2021/10/10 01:33:43;;;;;;;8.93;7.43;;;;;;;11.02;63.71;102175.44;5009781;28;20026;-42
2021/10/10 01:36:12;;;;;;;9.00;7.72;;;;;;;11.02;63.73;102179.81;5010653;28;20080;-42
2021/10/10 01:38:39;;;;;;;9.63;7.72;;;;;;;11.01;63.66;102170.13;5009532;28;20022;-43
2021/10/10 01:41:05;;;;;;;8.93;7.30;;;;;;;11.00;63.61;102176.25;5009443;28;20480;-43
2021/10/10 01:43:30;;;;;;;8.27;7.47;;;;;;;10.99;63.65;102170.09;5009082;28;20484;-42
2021/10/10 01:45:56;;;;;;;7.97;7.22;;;;;;;10.99;63.63;102164.81;5025041;28;20079;-42
2021/10/10 01:48:21;;;;;;;8.25;6.82;;;;;;;10.99;63.86;102171.84;5008733;28;20026;-42
2021/10/10 01:50:46;;;;;;;8.80;7.18;;;;;;;10.97;63.93;102166.53;5007405;28;20059;-42
2021/10/10 01:53:12;;;;;;;8.65;7.68;;;;;;;10.98;63.58;102167.44;5025214;28;20121;-43
2021/10/10 01:55:37;;;;;;;8.30;7.38;;;;;;;10.97;63.82;102163.03;5009230;28;20036;-42
2021/10/10 01:58:03;;;;;;;7.68;6.97;;;;;;;10.96;63.69;102155.94;5007079;28;20592;-43
2021/10/10 02:00:28;;;;;;;8.18;7.22;;;;;;;10.95;63.80;102165.66;5009545;28;20037;-42
2021/10/10 02:02:53;;;;;;;8.00;7.28;;;;;;;10.95;63.72;102162.09;5010605;28;20427;-42
2021/10/10 02:05:19;;;;;;;7.90;6.90;;;;;;;10.93;63.97;102158.56;5008487;28;20052;-42
2021/10/10 02:07:44;;;;;;;7.85;7.15;;;;;;;10.92;63.53;102162.97;5008168;28;20498;-42
2021/10/10 02:10:10;;;;;;;8.90;7.65;;;;;;;10.92;63.76;102160.31;5006803;28;20032;-43
2021/10/10 02:12:36;;;;;;;8.27;7.35;;;;;;;10.90;63.47;102155.03;5009881;28;20026;-43
2021/10/10 02:15:03;;;;;;;9.23;7.75;;;;;;;10.89;63.47;102155.91;5007638;28;20022;-42
2021/10/10 02:17:29;;;;;;;8.57;7.75;;;;;;;10.89;63.49;102157.63;5009410;28;20730;-43
2021/10/10 02:19:54;;;;;;;8.90;7.50;;;;;;;10.89;63.56;102163.81;5007871;28;20058;-42
2021/10/10 02:22:19;;;;;;;8.88;7.97;;;;;;;10.89;63.33;102158.53;5008884;28;20481;-42
2021/10/10 02:24:45;;;;;;;8.45;7.43;;;;;;;10.87;63.57;102152.34;5007329;28;20052;-42
2021/10/10 02:27:10;;;;;;;9.93;7.57;;;;;;;10.87;63.58;102154.97;5009802;28;20476;-42
2021/10/10 02:29:35;;;;;;;8.25;7.45;;;;;;;10.87;63.39;102162.88;5009365;28;20034;-42
2021/10/10 02:32:01;;;;;;;9.43;8.40;;;;;;;10.86;63.39;102158.50;5008325;28;20025;-42
2021/10/10 02:34:26;;;;;;;8.82;7.93;;;;;;;10.86;63.43;102163.75;5006228;28;20026;-42
2021/10/10 02:36:51;;;;;;;9.10;7.47;;;;;;;10.85;63.51;102162.00;5009878;28;20030;-42
2021/10/10 02:39:17;;;;;;;9.35;8.20;;;;;;;10.84;63.62;102154.91;5008295;28;20026;-43
2021/10/10 02:41:42;;;;;;;9.23;7.90;;;;;;;10.83;63.63;102146.97;5006550;28;20053;-43
2021/10/10 02:44:07;;;;;;;9.23;7.90;;;;;;;10.83;63.57;102153.16;5008076;28;20101;-43
2021/10/10 02:46:33;;;;;;;10.52;8.15;;;;;;;10.82;63.61;102148.75;5009618;28;20026;-42
2021/10/10 02:48:59;;;;;;;8.02;7.22;;;;;;;10.82;63.67;102153.13;5009414;28;20025;-43
2021/10/10 02:51:24;;;;;;;8.43;7.57;;;;;;;10.80;63.58;102147.84;5007310;28;20160;-42
2021/10/10 02:53:49;;;;;;;9.30;8.05;;;;;;;10.80;63.46;102147.84;5009261;28;20159;-42
2021/10/10 02:56:15;;;;;;;8.55;7.65;;;;;;;10.78;63.57;102139.88;5008146;28;20026;-42
2021/10/10 02:58:42;;;;;;;10.55;8.13;;;;;;;10.77;63.25;102140.75;5009897;28;20072;-42
2021/10/10 03:01:09;;;;;;;9.05;8.20;;;;;;;10.77;63.33;102143.41;5011950;28;20022;-42
2021/10/10 03:03:34;;;;;;;8.73;7.82;;;;;;;10.77;63.33;102131.94;5012879;28;20080;-42
2021/10/10 03:05:59;;;;;;;8.50;7.60;;;;;;;10.76;63.42;102138.09;5013546;28;20017;-42
2021/10/10 03:08:24;;;;;;;10.00;8.30;;;;;;;10.77;63.67;102142.50;5027807;28;20377;-42
2021/10/10 03:10:50;;;;;;;8.63;7.45;;;;;;;10.75;63.28;102139.88;5012231;28;20032;-43
2021/10/10 03:13:15;;;;;;;9.75;8.35;;;;;;;10.74;63.58;102138.06;5011871;28;20021;-43
2021/10/10 03:15:40;;;;;;;8.95;8.05;;;;;;;10.72;63.49;102129.28;5012241;28;20025;-43
2021/10/10 03:18:06;;;;;;;9.65;8.65;;;;;;;10.74;63.33;102137.22;5012976;28;20100;-43
2021/10/10 03:20:32;;;;;;;8.48;7.65;;;;;;;10.72;63.16;102134.53;5012650;28;20514;-43
2021/10/10 03:22:57;;;;;;;10.82;8.38;;;;;;;10.72;63.20;102129.28;5012053;28;20032;-43
2021/10/10 03:25:22;;;;;;;9.63;8.18;;;;;;;10.71;63.37;102126.59;5012289;28;20852;-43
2021/10/10 03:27:48;;;;;;;9.10;7.95;;;;;;;10.70;63.32;102127.47;5010352;28;20029;-43
2021/10/10 03:30:13;;;;;;;8.50;7.63;;;;;;;10.68;63.21;102124.81;5012052;28;20025;-43
2021/10/10 03:32:38;;;;;;;8.50;7.53;;;;;;;10.68;63.44;102116.91;5012448;28;20052;-43
2021/10/10 03:35:04;;;;;;;9.32;7.95;;;;;;;10.68;63.26;102118.66;5010478;28;20491;-43
2021/10/10 03:37:30;;;;;;;9.57;7.85;;;;;;;10.67;63.15;102127.44;5011782;28;20037;-43
2021/10/10 03:39:56;;;;;;;8.75;7.85;;;;;;;10.67;63.13;102119.53;5010146;28;20396;-43
2021/10/10 03:42:22;;;;;;;9.30;7.47;;;;;;;10.66;63.46;102118.63;5011705;28;20076;-43
2021/10/10 03:44:47;;;;;;;8.57;6.93;;;;;;;10.65;63.22;102109.84;5011361;28;20030;-43
2021/10/10 03:47:15;;;;;;;7.93;7.10;;;;;;;10.64;63.44;102121.22;5011437;28;20045;-43
2021/10/10 03:49:40;;;;;;;8.45;7.22;;;;;;;10.63;63.35;102124.75;5010009;28;20101;-43
2021/10/10 03:52:06;;;;;;;8.40;7.28;;;;;;;10.62;63.27;102116.81;5009845;28;20233;-43
2021/10/10 03:55:05;;;;;;;8.52;7.57;;;;;;;10.62;63.21;102120.34;5011968;28;20038;-43
2021/10/10 03:57:22;;;;;;;8.00;7.20;;;;;;;10.61;63.11;102115.91;5008937;28;20529;-43
2021/10/10 04:00:09;;;;;;;8.75;7.43;;;;;;;10.60;63.24;102108.88;5011146;28;20392;-43
2021/10/10 04:02:34;;;;;;;8.57;7.72;;;;;;;10.60;63.08;102113.28;5011519;28;20148;-43
2021/10/10 04:05:02;;;;;;;8.13;7.35;;;;;;;10.59;63.01;102108.84;5011873;28;20116;-43
2021/10/10 04:07:27;;;;;;;7.78;7.07;;;;;;;10.59;62.81;102112.38;5011251;28;20034;-43
2021/10/10 04:09:52;;;;;;;8.98;8.00;;;;;;;10.57;63.20;102107.94;5011482;28;20395;-43
2021/10/10 04:12:18;;;;;;;8.15;7.35;;;;;;;10.56;62.96;102107.06;5010556;28;20030;-43
2021/10/10 04:14:43;;;;;;;7.97;7.18;;;;;;;10.55;63.05;102104.38;5011284;28;20030;-44
2021/10/10 04:17:09;;;;;;;8.85;7.57;;;;;;;10.55;63.05;102104.38;5026685;28;20038;-43
2021/10/10 04:19:34;;;;;;;8.82;7.93;;;;;;;10.54;63.11;102098.25;5007559;28;20037;-43
2021/10/10 04:21:59;;;;;;;9.25;8.30;;;;;;;10.52;63.34;102103.50;5011480;28;20022;-44
2021/10/10 04:24:25;;;;;;;7.97;7.18;;;;;;;10.52;62.98;102098.22;5011429;28;20048;-43
2021/10/10 04:26:50;;;;;;;8.23;7.10;;;;;;;10.52;63.02;102099.97;5008971;28;20045;-43
2021/10/10 04:29:16;;;;;;;8.85;7.90;;;;;;;10.51;63.29;102108.75;5007137;28;20088;-43
2021/10/10 04:31:41;;;;;;;8.75;7.85;;;;;;;10.50;63.01;102107.84;5008414;28;20113;-43
2021/10/10 04:34:06;;;;;;;9.65;7.63;;;;;;;10.52;63.10;102119.31;5008399;28;20064;-43
2021/10/10 04:36:32;;;;;;;8.60;7.47;;;;;;;10.51;63.18;102119.31;5005218;28;20045;-43
2021/10/10 04:38:57;;;;;;;9.25;8.07;;;;;;;10.50;63.24;102109.59;5004790;28;20547;-43
2021/10/10 04:41:22;;;;;;;8.13;6.97;;;;;;;10.49;62.90;102111.38;5009100;28;20033;-43
2021/10/10 04:43:47;;;;;;;8.13;6.95;;;;;;;10.50;63.00;102112.22;5007789;28;20030;-43
2021/10/10 04:46:13;;;;;;;7.93;7.18;;;;;;;10.48;62.82;102114.88;5009459;28;20029;-43
2021/10/10 04:48:38;;;;;;;10.50;8.13;;;;;;;10.49;63.09;102115.75;5008149;28;20038;-43
2021/10/10 04:51:03;;;;;;;8.80;7.43;;;;;;;10.47;63.06;102112.22;5007657;28;20060;-43
2021/10/10 04:53:29;;;;;;;8.55;7.70;;;;;;;10.46;62.95;102110.41;5009015;28;20034;-43
2021/10/10 04:55:54;;;;;;;8.23;7.43;;;;;;;10.46;63.14;102110.41;5009657;28;20053;-43
2021/10/10 04:58:20;;;;;;;8.32;7.53;;;;;;;10.45;62.83;102111.28;5005282;28;20133;-43
2021/10/10 05:00:45;;;;;;;8.55;7.75;;;;;;;10.44;63.06;102106.84;5007598;28;20067;-43
2021/10/10 05:03:10;;;;;;;9.07;7.63;;;;;;;10.43;63.14;102099.81;5009534;28;20030;-42
2021/10/10 05:05:36;;;;;;;7.93;7.13;;;;;;;10.42;62.97;102100.66;5008671;28;20503;-42
2021/10/10 05:08:01;;;;;;;8.27;7.43;;;;;;;10.42;63.03;102103.28;5007295;28;20845;-43
2021/10/10 05:10:26;;;;;;;7.32;6.43;;;;;;;10.43;63.07;102094.53;5007066;28;20510;-42
2021/10/10 05:12:52;;;;;;;8.48;7.38;;;;;;;10.41;62.90;102102.44;5009468;28;20484;-42
2021/10/10 05:15:22;;;;;;;8.20;7.40;;;;;;;10.40;63.07;102100.63;5023306;22;20046;-43
2021/10/10 05:17:47;;;;;;;7.40;6.70;;;;;;;10.40;62.98;102095.34;5006127;28;20026;-42
2021/10/10 05:20:13;;;;;;;7.85;7.05;;;;;;;10.38;63.06;102095.31;4997408;28;20029;-42
2021/10/10 05:22:38;;;;;;;8.43;7.03;;;;;;;10.38;62.76;102102.38;4988921;28;20026;-43
2021/10/10 05:25:04;;;;;;;8.23;7.43;;;;;;;10.37;62.90;102100.59;4988769;28;20023;-42
2021/10/10 05:27:29;;;;;;;8.40;7.60;;;;;;;10.36;62.80;102099.72;4991529;28;20034;-44
2021/10/10 05:29:55;;;;;;;8.35;7.38;;;;;;;10.37;62.85;102108.53;4988603;28;22305;-42
2021/10/10 05:32:20;;;;;;;8.43;7.63;;;;;;;10.35;62.87;102107.59;4991706;28;20034;-42
2021/10/10 05:34:46;;;;;;;7.60;6.80;;;;;;;10.35;62.93;102112.88;4987076;28;20038;-42
2021/10/10 05:37:11;;;;;;;8.25;7.45;;;;;;;10.34;63.05;102114.63;4987403;28;20416;-43
2021/10/10 05:39:37;;;;;;;7.75;7.05;;;;;;;10.33;63.03;102109.31;4984221;28;20045;-43
2021/10/10 05:42:02;;;;;;;8.18;7.32;;;;;;;10.32;62.69;102113.72;4989425;28;20046;-43
2021/10/10 05:44:28;;;;;;;8.80;7.85;;;;;;;10.31;62.92;102111.97;4980233;28;20038;-41
2021/10/10 05:46:53;;;;;;;8.07;7.30;;;;;;;10.32;62.63;102113.72;4985310;28;20030;-42
2021/10/10 05:49:18;;;;;;;10.80;7.93;;;;;;;10.29;63.01;102111.03;4989165;28;20032;-43
2021/10/10 05:51:44;;;;;;;9.15;7.55;;;;;;;10.30;62.93;102104.00;4985639;28;20608;-42
2021/10/10 05:54:12;;;;;;;7.45;6.70;;;;;;;10.30;62.71;102110.16;4968190;28;20121;-42
2021/10/10 05:56:38;;;;;;;7.13;6.45;;;;;;;10.29;62.89;102102.22;4989775;28;20032;-42
2021/10/10 05:59:07;;;;;;;8.05;6.78;;;;;;;10.29;62.53;102102.22;4988025;28;20081;-43
2021/10/10 06:01:32;;;;;;;8.18;7.38;;;;;;;10.28;62.69;102104.00;4984366;28;20038;-42
2021/10/10 06:03:58;;;;;;;7.88;7.07;;;;;;;10.26;62.88;102095.16;4987060;28;20018;-43
2021/10/10 06:06:23;;;;;;;6.88;6.28;;;;;;;10.26;62.54;102097.78;4984780;28;20436;-42
2021/10/10 06:08:48;;;;;;;7.43;6.72;;;;;;;10.25;62.76;102093.38;4989990;28;20062;-42
2021/10/10 06:11:14;;;;;;;7.25;6.55;;;;;;;10.24;62.59;102089.84;4988200;28;20030;-42
2021/10/10 06:13:39;;;;;;;7.07;6.38;;;;;;;10.22;62.47;102094.25;4988568;28;20022;-43
2021/10/10 06:16:06;;;;;;;6.95;6.35;;;;;;;10.23;62.65;102097.75;4986354;28;20041;-43
2021/10/10 06:18:32;;;;;;;7.63;6.93;;;;;;;10.22;62.87;102095.97;4988525;28;20057;-44
2021/10/10 06:20:57;;;;;;;7.15;6.55;;;;;;;10.21;62.79;102088.94;4987978;28;20045;-42
2021/10/10 06:23:22;;;;;;;7.45;6.57;;;;;;;10.21;62.67;102099.47;4990405;28;20023;-43
2021/10/10 06:25:48;;;;;;;7.60;6.88;;;;;;;10.19;63.11;102106.47;4987665;28;20033;-43
2021/10/10 06:28:13;;;;;;;7.82;7.13;;;;;;;10.16;62.73;102094.13;4992121;28;20050;-43
2021/10/10 06:30:39;;;;;;;7.97;7.18;;;;;;;10.17;62.57;102106.44;4988769;28;20034;-42
2021/10/10 06:33:04;;;;;;;7.95;7.15;;;;;;;10.17;62.63;102113.50;4989248;28;20026;-43
2021/10/10 06:35:29;;;;;;;8.57;7.72;;;;;;;10.16;62.66;102109.94;4991001;28;20564;-42
2021/10/10 06:37:55;;;;;;;8.07;7.00;;;;;;;10.14;62.56;102109.06;4992397;28;20038;-43
2021/10/10 06:40:20;;;;;;;7.22;6.53;;;;;;;10.13;62.66;102108.16;4986758;28;20022;-43
2021/10/10 06:42:46;;;;;;;8.55;7.63;;;;;;;10.12;62.54;102111.66;4989246;28;20060;-43
2021/10/10 06:45:12;;;;;;;8.23;7.50;;;;;;;10.11;62.74;102115.13;4987522;28;20118;-42
2021/10/10 06:47:37;;;;;;;7.60;6.90;;;;;;;10.12;62.79;102116.03;4990668;28;20030;-42
2021/10/10 06:50:04;;;;;;;7.82;7.13;;;;;;;10.11;62.77;102114.28;4991005;28;20529;-42
2021/10/10 06:52:29;;;;;;;7.90;7.20;;;;;;;10.09;62.79;102113.34;4990742;28;20022;-43
2021/10/10 06:54:54;;;;;;;7.70;6.97;;;;;;;10.08;62.82;102109.84;4988517;28;20500;-43
2021/10/10 06:57:19;;;;;;;8.13;7.32;;;;;;;10.06;62.85;102108.91;4990971;28;20496;-43
2021/10/10 06:59:45;;;;;;;7.72;7.03;;;;;;;10.06;62.74;102114.19;4988581;28;20030;-43
2021/10/10 07:02:11;;;;;;;7.47;6.78;;;;;;;10.06;62.64;102110.66;4990402;28;20022;-41
2021/10/10 07:04:37;;;;;;;7.82;6.93;;;;;;;10.04;62.71;102115.91;5017763;23;20077;-41
2021/10/10 07:07:02;;;;;;;7.10;6.40;;;;;;;10.04;62.89;102113.25;5027268;28;20064;-41
2021/10/10 07:09:27;;;;;;;6.72;6.13;;;;;;;10.02;62.86;102109.72;5019608;28;20480;-42
2021/10/10 07:11:53;;;;;;;7.70;6.90;;;;;;;10.03;62.68;102119.41;5012271;28;20034;-44
2021/10/10 07:14:18;;;;;;;7.13;6.43;;;;;;;10.02;62.48;102117.66;5007339;28;20026;-43
2021/10/10 07:16:43;;;;;;;7.88;7.07;;;;;;;10.02;62.67;102120.28;5009695;28;20013;-42
2021/10/10 07:19:09;;;;;;;7.03;6.40;;;;;;;10.01;62.64;102119.38;5012290;28;20034;-42
2021/10/10 07:26:54;;;;;;;7.45;6.75;;;;;;;9.98;62.83;102127.22;5011941;28;20041;-40
2021/10/10 07:29:19;;;;;;;8.73;7.82;;;;;;;9.97;62.92;102122.81;5014658;28;20028;-41
2021/10/10 07:31:44;;;;;;;8.15;7.40;;;;;;;9.98;62.89;102139.53;5012439;28;20038;-41
2021/10/10 07:34:10;;;;;;;8.60;7.70;;;;;;;9.98;62.67;102131.63;5011334;28;20142;-41
2021/10/10 07:36:35;;;;;;;9.15;8.20;;;;;;;9.97;62.70;102135.13;5014268;28;20058;-42
2021/10/10 07:39:01;;;;;;;8.10;7.30;;;;;;;9.95;62.97;102135.13;5010074;28;20466;-41
2021/10/10 07:41:27;;;;;;;8.55;7.75;;;;;;;9.93;62.64;102133.28;4994945;28;20149;-41
2021/10/10 07:43:52;;;;;;;7.57;6.88;;;;;;;9.95;62.75;102128.94;5009054;28;20096;-41
2021/10/10 07:46:22;;;;;;;7.75;6.93;;;;;;;9.95;62.79;102128.94;5012055;28;20029;-42
2021/10/10 07:48:48;;;;;;;8.80;7.50;;;;;;;9.93;63.07;102130.66;5006455;28;20476;-41
2021/10/10 07:51:14;;;;;;;7.85;7.15;;;;;;;9.93;62.90;102135.91;5005153;28;20030;-43
2021/10/10 07:53:39;;;;;;;8.75;7.85;;;;;;;9.94;62.93;102129.81;5025482;28;20081;-42
2021/10/10 07:56:05;;;;;;;8.40;7.20;;;;;;;9.93;63.20;102133.28;5009536;28;20042;-42
2021/10/10 07:58:30;;;;;;;8.57;7.78;;;;;;;9.91;62.89;102128.00;5011571;28;20476;-43
2021/10/10 08:00:55;;;;;;;8.90;7.40;;;;;;;9.92;62.96;102128.88;5010318;28;20065;-43
2021/10/10 08:03:21;;;;;;;9.68;8.68;;;;;;;9.90;62.88;102126.22;5035365;22;20124;-42
2021/10/10 08:05:46;;;;;;;9.63;8.20;;;;;;;9.90;63.09;102120.94;5026570;28;20064;-43
2021/10/10 08:08:12;;;;;;;9.35;8.02;;;;;;;9.89;63.21;102119.19;5031439;28;20026;-42
2021/10/10 08:10:38;;;;;;;9.18;8.23;;;;;;;9.88;63.06;102113.00;5025449;28;20017;-42
2021/10/10 08:13:04;;;;;;;9.43;8.40;;;;;;;9.87;63.10;102111.25;5022297;28;20026;-42
2021/10/10 08:15:29;;;;;;;9.60;8.60;;;;;;;9.88;63.15;102106.88;5024661;28;20026;-42
2021/10/10 08:17:55;;;;;;;9.73;8.73;;;;;;;9.87;63.06;102111.25;5003903;28;20033;-43
2021/10/10 08:20:20;;;;;;;9.00;8.00;;;;;;;9.86;63.22;102109.47;5022702;28;20034;-41
2021/10/10 08:22:47;;;;;;;10.80;8.43;;;;;;;9.87;63.09;102108.63;5027439;28;20029;-42
2021/10/10 08:25:13;;;;;;;10.18;7.90;;;;;;;9.86;63.33;102106.84;5023934;28;20030;-43
2021/10/10 08:27:41;;;;;;;10.05;8.98;;;;;;;9.85;63.42;102113.00;5037938;23;20045;-42
2021/10/10 08:30:10;;;;;;;9.73;8.52;;;;;;;9.85;63.14;102105.09;5005751;28;20037;-42
2021/10/10 08:32:36;;;;;;;10.18;8.95;;;;;;;9.85;63.44;102107.72;5023029;28;20121;-43
2021/10/10 08:35:02;;;;;;;9.27;8.13;;;;;;;9.85;63.49;102106.81;5023490;28;20593;-41
2021/10/10 08:37:27;;;;;;;9.25;8.25;;;;;;;9.85;63.40;102112.09;5022278;28;20037;-42
2021/10/10 08:39:56;;;;;;;9.98;8.70;;;;;;;9.85;63.48;102109.44;5023287;28;20039;-42
2021/10/10 08:42:28;;;;;;;10.27;9.13;;;;;;;9.85;63.74;102101.53;5025391;28;20053;-42
2021/10/10 08:45:00;;;;;;;10.63;8.88;;;;;;;9.84;63.50;102107.69;5023308;28;20029;-43
2021/10/10 08:47:30;;;;;;;9.88;8.88;;;;;;;9.83;63.48;102100.63;5018641;28;20098;-43
2021/10/10 08:49:55;;;;;;;12.57;9.23;;;;;;;9.84;63.26;102100.66;5018143;28;20037;-43
2021/10/10 08:52:22;;;;;;;10.70;8.68;;;;;;;9.83;63.37;102098.88;5018577;28;20632;-42
2021/10/10 08:54:51;;;;;;;10.00;8.98;;;;;;;9.83;63.18;102105.88;5023573;28;20033;-42
2021/10/10 08:57:16;;;;;;;10.55;9.52;;;;;;;9.83;63.39;102103.25;5019102;28;20103;-43
2021/10/10 08:59:46;;;;;;;9.10;8.20;;;;;;;9.83;63.63;102105.88;5020080;28;20603;-44
2021/10/10 09:02:24;;;;;;;11.60;9.40;;;;;;;9.82;63.37;102098.84;5019322;28;20045;-42
2021/10/10 09:04:50;;;;;;;11.75;9.05;;;;;;;9.81;63.64;102090.09;5022794;28;20544;-43
2021/10/10 09:07:15;;;;;;;10.93;9.70;;;;;;;9.81;63.44;102092.72;5019754;28;20033;-42
2021/10/10 09:09:41;;;;;;;10.25;8.63;;;;;;;9.82;63.68;102094.47;5023679;28;20091;-42
2021/10/10 09:12:09;;;;;;;10.52;9.25;;;;;;;9.81;63.52;102092.72;5021227;28;20025;-42
2021/10/10 09:14:52;;;;;;;11.40;9.50;;;;;;;9.82;63.56;102090.94;5025460;28;20392;-43
2021/10/10 09:17:22;;;;;;;11.10;9.82;;;;;;;9.81;63.50;102095.34;5018952;28;20751;-43
2021/10/10 09:19:50;;;;;;;11.10;9.98;;;;;;;9.80;63.65;102088.28;5019822;28;20026;-43
2021/10/10 09:22:17;;;;;;;11.18;9.30;;;;;;;9.79;63.49;102089.16;5022827;28;20029;-43
2021/10/10 09:24:43;;;;;;;10.43;8.95;;;;;;;9.78;63.47;102087.38;5021898;28;20427;-42
2021/10/10 09:27:13;;;;;;;9.90;8.90;;;;;;;9.78;63.69;102087.38;5017859;28;20109;-42
2021/10/10 09:29:41;;;;;;;10.60;8.85;;;;;;;9.78;63.71;102089.13;5022058;28;20116;-42
2021/10/10 09:32:09;;;;;;;12.05;9.73;;;;;;;9.79;63.65;102085.63;5021527;28;20033;-42
2021/10/10 09:34:35;;;;;;;12.05;9.57;;;;;;;9.78;63.70;102078.59;5023651;28;20603;-42
2021/10/10 09:37:10;;;;;;;10.50;8.93;;;;;;;9.78;63.79;102084.75;5021112;28;20037;-42
2021/10/10 09:39:51;;;;;;;9.20;8.30;;;;;;;9.77;63.67;102080.31;5022097;28;20713;-42
2021/10/10 09:42:39;;;;;;;10.18;9.07;;;;;;;9.77;63.83;102077.69;5017410;28;20468;-43
2021/10/10 09:48:05;;;;;;;12.35;9.35;;;;;;;9.75;63.88;102068.88;5019926;28;20036;-42
2021/10/10 09:50:33;;;;;;;9.98;8.95;;;;;;;9.75;63.98;102074.16;5020318;28;20033;-42
2021/10/10 09:53:01;;;;;;;10.98;9.38;;;;;;;9.73;63.81;102066.22;5022152;28;20018;-43
2021/10/10 09:55:28;;;;;;;10.68;8.90;;;;;;;9.74;63.81;102067.13;5022047;28;20029;-43
2021/10/10 09:57:54;;;;;;;12.88;9.27;;;;;;;9.74;63.86;102056.59;5018369;28;20033;-42
2021/10/10 10:00:21;;;;;;;10.50;8.68;;;;;;;9.73;64.05;102054.78;5020944;28;20637;-42
2021/10/10 10:02:48;;;;;;;10.20;9.00;;;;;;;9.73;63.72;102053.06;5023129;28;20152;-42
2021/10/10 10:05:23;;;;;;;12.27;9.10;;;;;;;9.73;64.07;102052.16;5021545;28;20055;-42
2021/10/10 10:07:49;;;;;;;9.88;8.73;;;;;;;9.73;63.90;102052.16;5021783;28;20033;-42
2021/10/10 10:10:14;;;;;;;11.13;9.52;;;;;;;9.72;63.71;102053.91;5026609;28;20150;-43
2021/10/10 10:12:40;;;;;;;11.90;9.32;;;;;;;9.71;64.21;102049.50;5027218;28;20506;-43
2021/10/10 10:15:06;;;;;;;9.60;8.65;;;;;;;9.71;64.10;102051.25;5022954;28;20034;-43
2021/10/10 10:17:33;;;;;;;11.25;9.18;;;;;;;9.70;63.92;102049.50;5026360;28;20120;-43
2021/10/10 10:20:00;;;;;;;13.18;10.05;;;;;;;9.71;64.13;102046.00;5025377;28;20029;-43
2021/10/10 10:22:27;;;;;;;10.73;9.20;;;;;;;9.71;64.12;102046.00;5026608;28;20022;-43
2021/10/10 10:24:52;;;;;;;11.20;9.38;;;;;;;9.70;64.03;102046.84;5019977;28;20037;-43
2021/10/10 10:27:18;;;;;;;10.85;8.60;;;;;;;9.70;64.11;102045.09;5020042;28;20032;-43
2021/10/10 10:29:46;;;;;;;10.13;9.07;;;;;;;9.70;63.95;102046.84;5025596;28;20482;-44
2021/10/10 10:32:14;;;;;;;10.48;9.32;;;;;;;9.69;63.89;102042.44;5023774;28;20026;-43
2021/10/10 10:34:55;;;;;;;9.85;8.88;;;;;;;9.71;63.89;102041.59;5023654;28;20036;-42
2021/10/10 10:37:20;;;;;;;12.57;9.82;;;;;;;9.71;64.04;102038.09;5026755;28;20470;-43
2021/10/10 10:39:47;;;;;;;11.75;8.73;;;;;;;9.71;63.98;102033.69;5028980;28;20483;-43
2021/10/10 10:42:25;;;;;;;11.27;9.57;;;;;;;9.71;63.93;102030.19;5028202;28;20036;-43
2021/10/10 10:44:55;;;;;;;9.90;8.52;;;;;;;9.72;63.88;102024.94;5023554;28;20030;-44
2021/10/10 10:47:22;;;;;;;11.05;9.35;;;;;;;9.69;64.14;102022.25;5024103;28;20644;-42
2021/10/10 10:49:50;;;;;;;10.77;8.88;;;;;;;9.70;64.15;102028.41;5026543;28;20029;-43
2021/10/10 10:52:36;;;;;;;11.27;8.88;;;;;;;9.70;64.24;102023.16;5030103;28;20103;-43
2021/10/10 10:55:21;;;;;;;9.32;8.43;;;;;;;9.70;64.10;102031.06;5027883;28;20036;-43
2021/10/10 10:57:51;;;;;;;11.35;8.52;;;;;;;9.70;64.11;102017.88;5020415;28;20056;-44
2021/10/10 11:00:25;;;;;;;9.80;8.73;;;;;;;9.69;63.94;102022.25;5026864;28;20033;-43
2021/10/10 11:03:19;;;;;;;10.10;8.98;;;;;;;9.70;64.02;102020.50;5027149;28;20025;-43
2021/10/10 11:05:58;;;;;;;11.10;8.23;;;;;;;9.69;63.91;102013.44;5024903;28;20502;-43
2021/10/10 11:08:26;;;;;;;11.30;9.32;;;;;;;9.69;63.93;102016.97;5025771;28;20492;-44
2021/10/10 11:11:04;;;;;;;10.95;9.27;;;;;;;9.70;64.05;102015.25;5024729;28;20065;-43
2021/10/10 11:13:35;;;;;;;10.52;8.40;;;;;;;9.69;64.08;102005.53;5028486;28;20048;-42
2021/10/10 11:16:12;;;;;;;9.38;8.32;;;;;;;9.69;64.28;102005.53;5027716;28;20029;-44
2021/10/10 11:19:05;;;;;;;9.68;8.65;;;;;;;9.69;63.97;102000.28;5024249;28;20034;-42
2021/10/10 11:21:36;;;;;;;12.00;9.00;;;;;;;9.69;63.96;101992.38;5019565;28;20033;-42
2021/10/10 11:24:03;;;;;;;10.13;8.45;;;;;;;9.68;64.14;101993.25;5027426;28;20036;-42
2021/10/10 11:26:32;;;;;;;9.57;8.32;;;;;;;9.68;64.01;101988.88;5026265;28;20072;-42
2021/10/10 11:28:59;;;;;;;8.57;7.78;;;;;;;9.68;63.94;101985.34;5026071;28;20471;-42
2021/10/10 11:31:27;;;;;;;9.30;8.05;;;;;;;9.68;64.24;101980.06;5024175;28;20083;-42
2021/10/10 11:33:56;;;;;;;9.05;8.15;;;;;;;9.68;64.08;101980.06;5026333;28;20037;-44